This is the latest recevied weather packets stored in our database for station/object Kisslegg. If no packets are shown the sender has not sent any weather packets the latest 10 day(s).
| Time | Temp. | Humidity | Pressure | Rain* | Wind** | Luminosity | Snow |
|---|---|---|---|---|---|---|---|
| 1778248931 | 19.44° C | 53% | 1014.4 hPa | 0 mm | - | - | - |
| 1778247130 | 18.89° C | 60% | 1014.8 hPa | 0 mm | - | - | - |
| 1778245330 | 18.33° C | 57% | 1015.1 hPa | 0 mm | - | - | - |
| 1778243531 | 17.78° C | 60% | 1015.3 hPa | 0 mm | - | - | - |
| 1778241731 | 18.33° C | 58% | 1015.4 hPa | 0 mm | - | - | - |
| 1778239931 | 17.22° C | 60% | 1015.5 hPa | 0 mm | - | - | - |
| 1778238130 | 16.67° C | 66% | 1015.7 hPa | 0 mm | - | - | - |
| 1778236332 | 15° C | 72% | 1016.1 hPa | 0 mm | - | - | - |
| 1778234531 | 13.89° C | 80% | 1016.2 hPa | 0 mm | - | - | - |
| 1778232732 | 13.33° C | 82% | 1016.4 hPa | 0 mm | - | - | - |
| 1778230932 | 12.78° C | 83% | 1016.4 hPa | 0 mm | - | - | - |
| 1778229132 | 11.67° C | 88% | 1016.4 hPa | 0 mm | - | - | - |
| 1778227331 | 11.11° C | 93% | 1016.3 hPa | 0 mm | - | - | - |
| 1778225532 | 9.44° C | 96% | 1016.3 hPa | 0 mm | - | - | - |
| 1778223731 | 8.33° C | 97% | 1016.3 hPa | 0 mm | - | - | - |
| 1778221931 | 7.78° C | 96% | 1016.3 hPa | 0 mm | - | - | - |
| 1778220131 | 7.22° C | 96% | 1016.1 hPa | 0 mm | - | - | - |
| 1778218331 | 6.67° C | 96% | 1015.8 hPa | 0 mm | - | - | - |
| 1778216531 | 6.67° C | 95% | 1015.7 hPa | 0 mm | - | - | - |
| 1778214731 | 6.11° C | 94% | 1015.4 hPa | 0 mm | - | - | - |
| 1778212932 | 6.67° C | 94% | 1015.2 hPa | 0 mm | - | - | - |
| 1778211131 | 6.67° C | 93% | 1015.1 hPa | 0 mm | - | - | - |
| 1778209331 | 7.22° C | 93% | 1015.1 hPa | 0 mm | - | - | - |
| 1778207531 | 7.22° C | 92% | 1015 hPa | 0 mm | - | - | - |
| 1778205731 | 7.78° C | 92% | 1015 hPa | 0 mm | - | - | - |
* Rain since midnight (hover to see other rain measurements)
** Current wind speed in m/s (hover to see current wind gust speed)